sensor_id;sensor_type;location;lat;lon;timestamp;P1;durP1;ratioP1;P2;durP2;ratioP2
5135;SDS011;2586;48.710;9.202;2022-08-19T00:01:16;15.00;;;13.43;;
5135;SDS011;2586;48.710;9.202;2022-08-19T00:03:42;20.33;;;14.00;;
5135;SDS011;2586;48.710;9.202;2022-08-19T00:06:08;16.93;;;13.97;;
5135;SDS011;2586;48.710;9.202;2022-08-19T00:08:34;18.33;;;13.20;;
5135;SDS011;2586;48.710;9.202;2022-08-19T00:11:00;17.47;;;13.83;;
5135;SDS011;2586;48.710;9.202;2022-08-19T00:13:26;20.73;;;14.20;;
5135;SDS011;2586;48.710;9.202;2022-08-19T00:15:53;15.00;;;13.40;;
5135;SDS011;2586;48.710;9.202;2022-08-19T00:18:19;14.63;;;13.07;;
5135;SDS011;2586;48.710;9.202;2022-08-19T00:20:45;17.07;;;13.83;;
5135;SDS011;2586;48.710;9.202;2022-08-19T00:23:11;19.93;;;15.27;;
5135;SDS011;2586;48.710;9.202;2022-08-19T00:25:37;16.07;;;14.20;;
5135;SDS011;2586;48.710;9.202;2022-08-19T00:28:02;14.93;;;13.33;;
5135;SDS011;2586;48.710;9.202;2022-08-19T00:30:29;16.33;;;13.50;;
5135;SDS011;2586;48.710;9.202;2022-08-19T00:32:55;16.60;;;13.73;;
5135;SDS011;2586;48.710;9.202;2022-08-19T00:35:21;17.87;;;14.03;;
5135;SDS011;2586;48.710;9.202;2022-08-19T00:37:48;17.00;;;13.47;;
5135;SDS011;2586;48.710;9.202;2022-08-19T00:40:14;15.63;;;13.10;;
5135;SDS011;2586;48.710;9.202;2022-08-19T00:42:43;18.90;;;13.30;;
5135;SDS011;2586;48.710;9.202;2022-08-19T00:45:14;17.03;;;13.83;;
5135;SDS011;2586;48.710;9.202;2022-08-19T00:47:43;17.13;;;13.80;;
5135;SDS011;2586;48.710;9.202;2022-08-19T00:50:09;16.80;;;14.00;;
5135;SDS011;2586;48.710;9.202;2022-08-19T00:52:38;22.67;;;15.57;;
5135;SDS011;2586;48.710;9.202;2022-08-19T00:55:09;19.57;;;14.20;;
5135;SDS011;2586;48.710;9.202;2022-08-19T00:57:37;18.57;;;14.43;;
5135;SDS011;2586;48.710;9.202;2022-08-19T01:00:11;17.30;;;15.03;;
5135;SDS011;2586;48.710;9.202;2022-08-19T01:02:41;17.43;;;14.60;;
5135;SDS011;2586;48.710;9.202;2022-08-19T01:05:12;20.30;;;14.77;;
5135;SDS011;2586;48.710;9.202;2022-08-19T01:07:41;15.03;;;13.40;;
5135;SDS011;2586;48.710;9.202;2022-08-19T01:10:08;19.80;;;15.17;;
5135;SDS011;2586;48.710;9.202;2022-08-19T01:12:37;18.77;;;14.87;;
5135;SDS011;2586;48.710;9.202;2022-08-19T01:15:04;21.27;;;14.33;;
5135;SDS011;2586;48.710;9.202;2022-08-19T01:17:32;18.83;;;14.80;;
5135;SDS011;2586;48.710;9.202;2022-08-19T01:19:59;15.60;;;13.83;;
5135;SDS011;2586;48.710;9.202;2022-08-19T01:22:30;17.80;;;14.70;;
5135;SDS011;2586;48.710;9.202;2022-08-19T01:25:04;16.30;;;14.60;;
5135;SDS011;2586;48.710;9.202;2022-08-19T01:27:37;23.27;;;15.40;;
5135;SDS011;2586;48.710;9.202;2022-08-19T01:30:04;16.23;;;14.10;;
5135;SDS011;2586;48.710;9.202;2022-08-19T01:32:31;16.73;;;14.23;;
5135;SDS011;2586;48.710;9.202;2022-08-19T01:34:57;20.30;;;14.93;;
5135;SDS011;2586;48.710;9.202;2022-08-19T01:37:23;16.47;;;14.77;;
5135;SDS011;2586;48.710;9.202;2022-08-19T01:39:48;18.53;;;15.73;;
5135;SDS011;2586;48.710;9.202;2022-08-19T01:42:15;19.93;;;16.47;;
5135;SDS011;2586;48.710;9.202;2022-08-19T01:44:40;18.80;;;15.60;;
5135;SDS011;2586;48.710;9.202;2022-08-19T01:47:06;21.80;;;15.20;;
5135;SDS011;2586;48.710;9.202;2022-08-19T01:49:34;19.60;;;16.37;;
5135;SDS011;2586;48.710;9.202;2022-08-19T01:52:00;19.87;;;16.20;;
5135;SDS011;2586;48.710;9.202;2022-08-19T01:54:26;18.90;;;14.50;;
5135;SDS011;2586;48.710;9.202;2022-08-19T01:56:52;19.53;;;15.30;;
5135;SDS011;2586;48.710;9.202;2022-08-19T01:59:26;17.03;;;13.33;;
5135;SDS011;2586;48.710;9.202;2022-08-19T02:01:52;19.90;;;15.90;;
5135;SDS011;2586;48.710;9.202;2022-08-19T02:04:17;18.37;;;15.57;;
5135;SDS011;2586;48.710;9.202;2022-08-19T02:06:43;27.97;;;16.40;;
5135;SDS011;2586;48.710;9.202;2022-08-19T02:09:09;19.73;;;15.50;;
5135;SDS011;2586;48.710;9.202;2022-08-19T02:11:35;17.67;;;15.03;;
5135;SDS011;2586;48.710;9.202;2022-08-19T02:14:02;27.13;;;15.63;;
5135;SDS011;2586;48.710;9.202;2022-08-19T02:16:30;27.73;;;16.30;;
5135;SDS011;2586;48.710;9.202;2022-08-19T02:18:57;20.73;;;15.70;;
5135;SDS011;2586;48.710;9.202;2022-08-19T02:21:25;21.33;;;16.10;;
5135;SDS011;2586;48.710;9.202;2022-08-19T02:23:51;24.10;;;17.00;;
5135;SDS011;2586;48.710;9.202;2022-08-19T02:26:17;21.53;;;16.10;;
5135;SDS011;2586;48.710;9.202;2022-08-19T02:28:43;19.00;;;15.77;;
5135;SDS011;2586;48.710;9.202;2022-08-19T02:31:13;23.73;;;16.80;;
5135;SDS011;2586;48.710;9.202;2022-08-19T02:33:40;22.70;;;17.00;;
5135;SDS011;2586;48.710;9.202;2022-08-19T02:36:07;23.47;;;16.80;;
5135;SDS011;2586;48.710;9.202;2022-08-19T02:38:33;22.40;;;17.67;;
5135;SDS011;2586;48.710;9.202;2022-08-19T02:41:00;21.03;;;17.67;;
5135;SDS011;2586;48.710;9.202;2022-08-19T02:43:30;21.50;;;17.70;;
5135;SDS011;2586;48.710;9.202;2022-08-19T02:45:56;20.20;;;17.60;;
5135;SDS011;2586;48.710;9.202;2022-08-19T02:48:23;22.30;;;17.90;;
5135;SDS011;2586;48.710;9.202;2022-08-19T02:50:50;24.33;;;19.00;;
5135;SDS011;2586;48.710;9.202;2022-08-19T02:53:20;23.53;;;17.80;;
5135;SDS011;2586;48.710;9.202;2022-08-19T02:55:47;21.77;;;17.37;;
5135;SDS011;2586;48.710;9.202;2022-08-19T02:58:14;29.03;;;18.40;;
5135;SDS011;2586;48.710;9.202;2022-08-19T03:00:41;23.63;;;19.00;;
5135;SDS011;2586;48.710;9.202;2022-08-19T03:03:08;27.97;;;18.60;;
5135;SDS011;2586;48.710;9.202;2022-08-19T03:05:34;31.27;;;17.57;;
5135;SDS011;2586;48.710;9.202;2022-08-19T03:08:00;23.00;;;19.30;;
5135;SDS011;2586;48.710;9.202;2022-08-19T03:10:26;26.67;;;19.27;;
5135;SDS011;2586;48.710;9.202;2022-08-19T03:12:52;25.27;;;19.07;;
5135;SDS011;2586;48.710;9.202;2022-08-19T03:15:17;30.40;;;21.30;;
5135;SDS011;2586;48.710;9.202;2022-08-19T03:17:43;27.77;;;20.77;;
5135;SDS011;2586;48.710;9.202;2022-08-19T03:20:08;24.23;;;19.10;;
5135;SDS011;2586;48.710;9.202;2022-08-19T03:22:34;24.80;;;19.60;;
5135;SDS011;2586;48.710;9.202;2022-08-19T03:25:00;25.23;;;21.70;;
5135;SDS011;2586;48.710;9.202;2022-08-19T03:27:25;31.97;;;20.43;;
5135;SDS011;2586;48.710;9.202;2022-08-19T03:29:51;26.03;;;19.77;;
5135;SDS011;2586;48.710;9.202;2022-08-19T03:32:17;29.63;;;20.70;;
5135;SDS011;2586;48.710;9.202;2022-08-19T03:34:43;32.50;;;22.90;;
5135;SDS011;2586;48.710;9.202;2022-08-19T03:37:10;28.53;;;20.83;;
5135;SDS011;2586;48.710;9.202;2022-08-19T03:39:39;27.93;;;20.80;;
5135;SDS011;2586;48.710;9.202;2022-08-19T03:42:05;28.83;;;22.17;;
5135;SDS011;2586;48.710;9.202;2022-08-19T03:44:31;34.00;;;20.63;;
5135;SDS011;2586;48.710;9.202;2022-08-19T03:46:59;31.60;;;22.30;;
5135;SDS011;2586;48.710;9.202;2022-08-19T03:49:26;26.73;;;21.23;;
5135;SDS011;2586;48.710;9.202;2022-08-19T03:51:53;37.57;;;21.20;;
5135;SDS011;2586;48.710;9.202;2022-08-19T03:54:22;33.97;;;23.93;;
5135;SDS011;2586;48.710;9.202;2022-08-19T03:56:49;30.53;;;24.40;;
5135;SDS011;2586;48.710;9.202;2022-08-19T03:59:35;29.60;;;22.93;;
5135;SDS011;2586;48.710;9.202;2022-08-19T04:02:03;31.20;;;24.67;;
5135;SDS011;2586;48.710;9.202;2022-08-19T04:04:34;36.00;;;22.70;;
5135;SDS011;2586;48.710;9.202;2022-08-19T04:07:00;33.97;;;24.77;;
5135;SDS011;2586;48.710;9.202;2022-08-19T04:09:26;33.83;;;24.30;;
5135;SDS011;2586;48.710;9.202;2022-08-19T04:11:52;31.50;;;22.40;;
5135;SDS011;2586;48.710;9.202;2022-08-19T04:14:22;34.67;;;25.13;;
5135;SDS011;2586;48.710;9.202;2022-08-19T04:16:50;33.00;;;24.37;;
5135;SDS011;2586;48.710;9.202;2022-08-19T04:19:16;32.33;;;24.23;;
5135;SDS011;2586;48.710;9.202;2022-08-19T04:21:43;32.40;;;24.90;;
5135;SDS011;2586;48.710;9.202;2022-08-19T04:24:11;36.70;;;23.67;;
5135;SDS011;2586;48.710;9.202;2022-08-19T04:26:37;41.03;;;25.80;;
5135;SDS011;2586;48.710;9.202;2022-08-19T04:29:05;33.47;;;25.83;;
5135;SDS011;2586;48.710;9.202;2022-08-19T04:31:33;35.07;;;24.07;;
5135;SDS011;2586;48.710;9.202;2022-08-19T04:34:03;32.33;;;24.07;;
5135;SDS011;2586;48.710;9.202;2022-08-19T04:36:32;45.30;;;25.90;;
5135;SDS011;2586;48.710;9.202;2022-08-19T04:39:05;33.90;;;25.67;;
5135;SDS011;2586;48.710;9.202;2022-08-19T04:41:32;37.40;;;25.83;;
5135;SDS011;2586;48.710;9.202;2022-08-19T04:44:16;39.70;;;24.20;;
5135;SDS011;2586;48.710;9.202;2022-08-19T04:46:45;39.50;;;27.43;;
5135;SDS011;2586;48.710;9.202;2022-08-19T04:49:12;41.03;;;26.80;;
5135;SDS011;2586;48.710;9.202;2022-08-19T04:51:40;38.13;;;26.17;;
5135;SDS011;2586;48.710;9.202;2022-08-19T04:54:07;34.83;;;24.10;;
5135;SDS011;2586;48.710;9.202;2022-08-19T04:56:33;35.00;;;25.83;;
5135;SDS011;2586;48.710;9.202;2022-08-19T04:58:59;37.37;;;26.10;;
5135;SDS011;2586;48.710;9.202;2022-08-19T05:01:28;34.90;;;26.17;;
5135;SDS011;2586;48.710;9.202;2022-08-19T05:03:55;39.90;;;25.63;;
5135;SDS011;2586;48.710;9.202;2022-08-19T05:06:22;35.70;;;25.50;;
5135;SDS011;2586;48.710;9.202;2022-08-19T05:08:50;35.93;;;26.33;;
5135;SDS011;2586;48.710;9.202;2022-08-19T05:11:17;31.90;;;24.23;;
5135;SDS011;2586;48.710;9.202;2022-08-19T05:13:45;35.57;;;25.60;;
5135;SDS011;2586;48.710;9.202;2022-08-19T05:16:13;28.87;;;23.07;;
5135;SDS011;2586;48.710;9.202;2022-08-19T05:18:40;31.00;;;24.77;;
5135;SDS011;2586;48.710;9.202;2022-08-19T05:21:25;36.50;;;23.80;;
5135;SDS011;2586;48.710;9.202;2022-08-19T05:24:09;31.07;;;23.57;;
5135;SDS011;2586;48.710;9.202;2022-08-19T05:26:36;35.33;;;25.17;;
5135;SDS011;2586;48.710;9.202;2022-08-19T05:29:03;28.70;;;22.53;;
5135;SDS011;2586;48.710;9.202;2022-08-19T05:31:30;29.37;;;24.43;;
5135;SDS011;2586;48.710;9.202;2022-08-19T05:33:56;33.20;;;23.70;;
5135;SDS011;2586;48.710;9.202;2022-08-19T05:36:26;32.83;;;24.90;;
5135;SDS011;2586;48.710;9.202;2022-08-19T05:38:52;38.43;;;25.17;;
5135;SDS011;2586;48.710;9.202;2022-08-19T05:41:19;34.47;;;23.50;;
5135;SDS011;2586;48.710;9.202;2022-08-19T05:43:45;30.70;;;23.20;;
5135;SDS011;2586;48.710;9.202;2022-08-19T05:46:16;38.67;;;25.50;;
5135;SDS011;2586;48.710;9.202;2022-08-19T05:48:43;30.87;;;25.47;;
5135;SDS011;2586;48.710;9.202;2022-08-19T05:51:09;29.60;;;24.00;;
5135;SDS011;2586;48.710;9.202;2022-08-19T05:53:36;27.60;;;22.60;;
5135;SDS011;2586;48.710;9.202;2022-08-19T05:56:09;28.30;;;23.70;;
5135;SDS011;2586;48.710;9.202;2022-08-19T05:58:41;41.10;;;24.63;;
5135;SDS011;2586;48.710;9.202;2022-08-19T06:01:15;35.87;;;25.53;;
5135;SDS011;2586;48.710;9.202;2022-08-19T06:03:43;35.93;;;24.10;;
5135;SDS011;2586;48.710;9.202;2022-08-19T06:06:10;25.90;;;22.20;;
5135;SDS011;2586;48.710;9.202;2022-08-19T06:08:38;31.00;;;24.30;;
5135;SDS011;2586;48.710;9.202;2022-08-19T06:11:21;31.80;;;22.43;;
5135;SDS011;2586;48.710;9.202;2022-08-19T06:13:49;33.13;;;21.90;;
5135;SDS011;2586;48.710;9.202;2022-08-19T06:16:20;36.30;;;23.97;;
5135;SDS011;2586;48.710;9.202;2022-08-19T06:18:47;27.27;;;23.00;;
5135;SDS011;2586;48.710;9.202;2022-08-19T06:21:17;27.90;;;22.03;;
5135;SDS011;2586;48.710;9.202;2022-08-19T06:23:45;36.00;;;23.63;;
5135;SDS011;2586;48.710;9.202;2022-08-19T06:26:12;29.47;;;21.70;;
5135;SDS011;2586;48.710;9.202;2022-08-19T06:28:38;32.67;;;23.47;;
5135;SDS011;2586;48.710;9.202;2022-08-19T06:31:08;35.33;;;24.40;;
5135;SDS011;2586;48.710;9.202;2022-08-19T06:33:34;31.40;;;24.93;;
5135;SDS011;2586;48.710;9.202;2022-08-19T06:36:00;31.83;;;24.43;;
5135;SDS011;2586;48.710;9.202;2022-08-19T06:38:26;35.60;;;26.00;;
5135;SDS011;2586;48.710;9.202;2022-08-19T06:40:59;31.70;;;24.57;;
5135;SDS011;2586;48.710;9.202;2022-08-19T06:43:26;33.53;;;24.70;;
5135;SDS011;2586;48.710;9.202;2022-08-19T06:45:51;32.03;;;24.93;;
5135;SDS011;2586;48.710;9.202;2022-08-19T06:48:17;35.57;;;24.93;;
5135;SDS011;2586;48.710;9.202;2022-08-19T06:50:43;36.70;;;26.33;;
5135;SDS011;2586;48.710;9.202;2022-08-19T06:53:08;33.77;;;26.90;;
5135;SDS011;2586;48.710;9.202;2022-08-19T06:55:34;32.57;;;25.13;;
5135;SDS011;2586;48.710;9.202;2022-08-19T06:58:03;36.83;;;26.40;;
5135;SDS011;2586;48.710;9.202;2022-08-19T07:00:29;34.57;;;26.17;;
5135;SDS011;2586;48.710;9.202;2022-08-19T07:02:55;38.43;;;27.10;;
5135;SDS011;2586;48.710;9.202;2022-08-19T07:05:21;32.23;;;26.30;;
5135;SDS011;2586;48.710;9.202;2022-08-19T07:07:47;27.87;;;23.67;;
5135;SDS011;2586;48.710;9.202;2022-08-19T07:10:12;44.27;;;26.50;;
5135;SDS011;2586;48.710;9.202;2022-08-19T07:12:38;35.70;;;25.90;;
5135;SDS011;2586;48.710;9.202;2022-08-19T07:15:05;31.90;;;25.63;;
5135;SDS011;2586;48.710;9.202;2022-08-19T07:17:33;36.87;;;25.10;;
5135;SDS011;2586;48.710;9.202;2022-08-19T07:20:03;27.50;;;23.90;;
5135;SDS011;2586;48.710;9.202;2022-08-19T07:22:32;32.23;;;25.37;;
5135;SDS011;2586;48.710;9.202;2022-08-19T07:24:59;49.27;;;26.80;;
5135;SDS011;2586;48.710;9.202;2022-08-19T07:27:24;36.07;;;24.53;;
5135;SDS011;2586;48.710;9.202;2022-08-19T07:29:51;33.83;;;24.40;;
5135;SDS011;2586;48.710;9.202;2022-08-19T07:32:19;37.30;;;24.10;;
5135;SDS011;2586;48.710;9.202;2022-08-19T07:34:45;37.77;;;23.70;;
5135;SDS011;2586;48.710;9.202;2022-08-19T07:37:11;37.87;;;24.57;;
5135;SDS011;2586;48.710;9.202;2022-08-19T07:39:37;33.30;;;24.20;;
5135;SDS011;2586;48.710;9.202;2022-08-19T07:42:05;33.73;;;24.67;;
5135;SDS011;2586;48.710;9.202;2022-08-19T07:44:34;36.47;;;26.10;;
5135;SDS011;2586;48.710;9.202;2022-08-19T07:47:00;46.70;;;27.30;;
5135;SDS011;2586;48.710;9.202;2022-08-19T07:49:27;35.47;;;23.60;;
5135;SDS011;2586;48.710;9.202;2022-08-19T07:51:57;41.10;;;26.27;;
5135;SDS011;2586;48.710;9.202;2022-08-19T07:54:31;31.70;;;25.87;;
5135;SDS011;2586;48.710;9.202;2022-08-19T07:57:01;36.90;;;26.20;;
5135;SDS011;2586;48.710;9.202;2022-08-19T07:59:28;33.17;;;25.30;;
5135;SDS011;2586;48.710;9.202;2022-08-19T08:01:54;34.67;;;26.90;;
5135;SDS011;2586;48.710;9.202;2022-08-19T08:04:21;34.97;;;26.93;;
5135;SDS011;2586;48.710;9.202;2022-08-19T08:07:06;34.90;;;26.37;;
5135;SDS011;2586;48.710;9.202;2022-08-19T08:09:51;39.40;;;28.60;;
5135;SDS011;2586;48.710;9.202;2022-08-19T08:12:21;33.93;;;26.53;;
5135;SDS011;2586;48.710;9.202;2022-08-19T08:14:51;36.60;;;27.83;;
5135;SDS011;2586;48.710;9.202;2022-08-19T08:17:20;37.77;;;26.07;;
5135;SDS011;2586;48.710;9.202;2022-08-19T08:19:48;32.90;;;24.60;;
5135;SDS011;2586;48.710;9.202;2022-08-19T08:22:16;40.43;;;27.97;;
5135;SDS011;2586;48.710;9.202;2022-08-19T08:25:12;32.80;;;26.50;;
5135;SDS011;2586;48.710;9.202;2022-08-19T08:27:41;39.50;;;27.30;;
5135;SDS011;2586;48.710;9.202;2022-08-19T08:30:09;37.57;;;26.40;;
5135;SDS011;2586;48.710;9.202;2022-08-19T08:32:38;35.43;;;28.53;;
5135;SDS011;2586;48.710;9.202;2022-08-19T08:35:05;33.90;;;27.37;;
5135;SDS011;2586;48.710;9.202;2022-08-19T08:37:33;35.10;;;26.67;;
5135;SDS011;2586;48.710;9.202;2022-08-19T08:40:02;31.97;;;26.03;;
5135;SDS011;2586;48.710;9.202;2022-08-19T08:42:36;40.43;;;29.33;;
5135;SDS011;2586;48.710;9.202;2022-08-19T08:45:12;37.63;;;27.93;;
5135;SDS011;2586;48.710;9.202;2022-08-19T08:47:41;39.33;;;26.47;;
5135;SDS011;2586;48.710;9.202;2022-08-19T08:50:21;36.43;;;28.67;;
5135;SDS011;2586;48.710;9.202;2022-08-19T08:53:00;38.90;;;27.93;;
5135;SDS011;2586;48.710;9.202;2022-08-19T08:55:28;33.40;;;25.93;;
5135;SDS011;2586;48.710;9.202;2022-08-19T08:57:57;41.20;;;27.93;;
5135;SDS011;2586;48.710;9.202;2022-08-19T09:00:37;44.00;;;29.07;;
5135;SDS011;2586;48.710;9.202;2022-08-19T09:03:06;36.60;;;27.90;;
5135;SDS011;2586;48.710;9.202;2022-08-19T09:05:44;39.97;;;25.67;;
5135;SDS011;2586;48.710;9.202;2022-08-19T09:08:44;34.07;;;27.23;;
5135;SDS011;2586;48.710;9.202;2022-08-19T09:11:34;38.10;;;27.40;;
5135;SDS011;2586;48.710;9.202;2022-08-19T09:14:29;38.23;;;28.37;;
5135;SDS011;2586;48.710;9.202;2022-08-19T09:16:57;30.00;;;25.47;;
5135;SDS011;2586;48.710;9.202;2022-08-19T09:19:24;42.43;;;28.03;;
5135;SDS011;2586;48.710;9.202;2022-08-19T09:21:50;38.37;;;27.47;;
5135;SDS011;2586;48.710;9.202;2022-08-19T09:24:16;29.60;;;23.97;;
5135;SDS011;2586;48.710;9.202;2022-08-19T09:26:41;36.17;;;25.63;;
5135;SDS011;2586;48.710;9.202;2022-08-19T09:29:08;34.77;;;25.70;;
5135;SDS011;2586;48.710;9.202;2022-08-19T09:31:35;33.80;;;24.73;;
5135;SDS011;2586;48.710;9.202;2022-08-19T09:34:02;33.43;;;26.10;;
5135;SDS011;2586;48.710;9.202;2022-08-19T09:36:29;33.30;;;24.90;;
5135;SDS011;2586;48.710;9.202;2022-08-19T09:38:57;37.63;;;25.50;;
5135;SDS011;2586;48.710;9.202;2022-08-19T09:41:24;27.60;;;23.83;;
5135;SDS011;2586;48.710;9.202;2022-08-19T09:43:52;38.53;;;24.33;;
5135;SDS011;2586;48.710;9.202;2022-08-19T09:46:26;31.00;;;22.10;;
5135;SDS011;2586;48.710;9.202;2022-08-19T09:48:53;40.93;;;24.10;;
5135;SDS011;2586;48.710;9.202;2022-08-19T09:51:21;28.40;;;24.43;;
5135;SDS011;2586;48.710;9.202;2022-08-19T09:53:50;25.47;;;22.70;;
5135;SDS011;2586;48.710;9.202;2022-08-19T09:56:18;28.50;;;23.50;;
5135;SDS011;2586;48.710;9.202;2022-08-19T09:58:44;35.47;;;24.50;;
5135;SDS011;2586;48.710;9.202;2022-08-19T10:01:15;30.90;;;21.97;;
5135;SDS011;2586;48.710;9.202;2022-08-19T10:03:49;29.03;;;23.17;;
5135;SDS011;2586;48.710;9.202;2022-08-19T10:06:18;34.77;;;23.80;;
5135;SDS011;2586;48.710;9.202;2022-08-19T10:08:44;33.60;;;24.03;;
5135;SDS011;2586;48.710;9.202;2022-08-19T10:11:11;29.37;;;23.33;;
5135;SDS011;2586;48.710;9.202;2022-08-19T10:13:39;30.33;;;22.63;;
5135;SDS011;2586;48.710;9.202;2022-08-19T10:16:10;27.27;;;22.97;;
5135;SDS011;2586;48.710;9.202;2022-08-19T10:18:39;36.70;;;25.10;;
5135;SDS011;2586;48.710;9.202;2022-08-19T10:23:36;31.20;;;24.57;;
5135;SDS011;2586;48.710;9.202;2022-08-19T10:26:04;23.50;;;20.97;;
5135;SDS011;2586;48.710;9.202;2022-08-19T10:28:32;30.63;;;25.13;;
5135;SDS011;2586;48.710;9.202;2022-08-19T10:31:08;28.83;;;23.23;;
5135;SDS011;2586;48.710;9.202;2022-08-19T10:33:36;28.63;;;21.40;;
5135;SDS011;2586;48.710;9.202;2022-08-19T10:36:07;35.17;;;23.50;;
5135;SDS011;2586;48.710;9.202;2022-08-19T10:38:45;32.47;;;23.70;;
5135;SDS011;2586;48.710;9.202;2022-08-19T10:41:15;22.70;;;20.07;;
5135;SDS011;2586;48.710;9.202;2022-08-19T10:43:43;28.77;;;20.13;;
5135;SDS011;2586;48.710;9.202;2022-08-19T10:46:10;30.27;;;22.17;;
5135;SDS011;2586;48.710;9.202;2022-08-19T10:48:38;25.80;;;19.33;;
5135;SDS011;2586;48.710;9.202;2022-08-19T10:51:03;25.73;;;20.67;;
5135;SDS011;2586;48.710;9.202;2022-08-19T10:53:49;23.23;;;18.53;;
5135;SDS011;2586;48.710;9.202;2022-08-19T10:56:15;22.73;;;18.97;;
5135;SDS011;2586;48.710;9.202;2022-08-19T10:59:00;24.07;;;19.30;;
5135;SDS011;2586;48.710;9.202;2022-08-19T11:01:26;32.10;;;21.53;;
5135;SDS011;2586;48.710;9.202;2022-08-19T11:03:52;23.40;;;20.30;;
5135;SDS011;2586;48.710;9.202;2022-08-19T11:06:17;28.37;;;17.97;;
5135;SDS011;2586;48.710;9.202;2022-08-19T11:08:44;21.80;;;18.70;;
5135;SDS011;2586;48.710;9.202;2022-08-19T11:11:10;25.00;;;19.43;;
5135;SDS011;2586;48.710;9.202;2022-08-19T11:13:37;25.17;;;19.37;;
5135;SDS011;2586;48.710;9.202;2022-08-19T11:16:09;25.17;;;17.53;;
5135;SDS011;2586;48.710;9.202;2022-08-19T11:18:39;19.43;;;15.73;;
5135;SDS011;2586;48.710;9.202;2022-08-19T11:21:13;23.57;;;16.40;;
5135;SDS011;2586;48.710;9.202;2022-08-19T11:23:44;18.07;;;15.30;;
5135;SDS011;2586;48.710;9.202;2022-08-19T11:26:11;25.23;;;16.00;;
5135;SDS011;2586;48.710;9.202;2022-08-19T11:28:38;19.83;;;15.90;;
5135;SDS011;2586;48.710;9.202;2022-08-19T11:31:04;18.83;;;16.50;;
5135;SDS011;2586;48.710;9.202;2022-08-19T11:33:35;22.13;;;15.03;;
5135;SDS011;2586;48.710;9.202;2022-08-19T11:36:01;18.13;;;16.30;;
5135;SDS011;2586;48.710;9.202;2022-08-19T11:38:27;18.13;;;16.07;;
5135;SDS011;2586;48.710;9.202;2022-08-19T11:40:56;22.57;;;15.27;;
5135;SDS011;2586;48.710;9.202;2022-08-19T11:43:24;18.17;;;16.00;;
5135;SDS011;2586;48.710;9.202;2022-08-19T11:45:51;16.90;;;14.37;;
5135;SDS011;2586;48.710;9.202;2022-08-19T11:48:18;23.97;;;19.27;;
5135;SDS011;2586;48.710;9.202;2022-08-19T11:50:46;32.23;;;22.33;;
5135;SDS011;2586;48.710;9.202;2022-08-19T11:53:21;30.80;;;25.17;;
5135;SDS011;2586;48.710;9.202;2022-08-19T11:55:47;33.53;;;27.17;;
5135;SDS011;2586;48.710;9.202;2022-08-19T11:58:14;39.93;;;27.17;;
5135;SDS011;2586;48.710;9.202;2022-08-19T12:00:41;33.23;;;25.63;;
5135;SDS011;2586;48.710;9.202;2022-08-19T12:03:10;34.47;;;26.50;;
5135;SDS011;2586;48.710;9.202;2022-08-19T12:05:37;43.60;;;25.40;;
5135;SDS011;2586;48.710;9.202;2022-08-19T12:08:04;30.07;;;25.67;;
5135;SDS011;2586;48.710;9.202;2022-08-19T12:10:31;35.27;;;27.20;;
5135;SDS011;2586;48.710;9.202;2022-08-19T12:12:57;30.77;;;25.20;;
5135;SDS011;2586;48.710;9.202;2022-08-19T12:15:23;34.27;;;25.03;;
5135;SDS011;2586;48.710;9.202;2022-08-19T12:17:48;29.13;;;24.13;;
5135;SDS011;2586;48.710;9.202;2022-08-19T12:20:14;30.50;;;24.70;;
5135;SDS011;2586;48.710;9.202;2022-08-19T12:22:42;30.20;;;25.87;;
5135;SDS011;2586;48.710;9.202;2022-08-19T12:25:10;39.37;;;25.57;;
5135;SDS011;2586;48.710;9.202;2022-08-19T12:27:37;39.57;;;29.60;;
5135;SDS011;2586;48.710;9.202;2022-08-19T12:30:04;36.83;;;27.17;;
5135;SDS011;2586;48.710;9.202;2022-08-19T12:32:31;36.47;;;27.83;;
5135;SDS011;2586;48.710;9.202;2022-08-19T12:34:57;38.10;;;28.83;;
5135;SDS011;2586;48.710;9.202;2022-08-19T12:37:23;34.40;;;27.50;;
5135;SDS011;2586;48.710;9.202;2022-08-19T12:39:48;33.80;;;26.00;;
5135;SDS011;2586;48.710;9.202;2022-08-19T12:42:14;35.00;;;26.50;;
5135;SDS011;2586;48.710;9.202;2022-08-19T12:44:41;34.90;;;26.50;;
5135;SDS011;2586;48.710;9.202;2022-08-19T12:47:07;42.77;;;27.40;;
5135;SDS011;2586;48.710;9.202;2022-08-19T12:49:35;41.33;;;30.67;;
5135;SDS011;2586;48.710;9.202;2022-08-19T12:52:02;31.57;;;26.17;;
5135;SDS011;2586;48.710;9.202;2022-08-19T12:54:33;36.70;;;29.57;;
5135;SDS011;2586;48.710;9.202;2022-08-19T12:56:59;42.00;;;30.70;;
5135;SDS011;2586;48.710;9.202;2022-08-19T12:59:25;41.27;;;32.87;;
5135;SDS011;2586;48.710;9.202;2022-08-19T13:01:51;44.00;;;33.00;;
5135;SDS011;2586;48.710;9.202;2022-08-19T13:04:17;42.77;;;32.40;;
5135;SDS011;2586;48.710;9.202;2022-08-19T13:06:43;47.03;;;33.33;;
5135;SDS011;2586;48.710;9.202;2022-08-19T13:09:09;41.00;;;30.67;;
5135;SDS011;2586;48.710;9.202;2022-08-19T13:11:35;40.30;;;32.17;;
5135;SDS011;2586;48.710;9.202;2022-08-19T13:14:02;39.90;;;31.90;;
5135;SDS011;2586;48.710;9.202;2022-08-19T13:16:29;45.33;;;34.77;;
5135;SDS011;2586;48.710;9.202;2022-08-19T13:18:55;43.10;;;31.87;;
5135;SDS011;2586;48.710;9.202;2022-08-19T13:21:23;40.90;;;31.90;;
5135;SDS011;2586;48.710;9.202;2022-08-19T13:23:52;41.20;;;31.93;;
5135;SDS011;2586;48.710;9.202;2022-08-19T13:26:17;48.97;;;33.63;;
5135;SDS011;2586;48.710;9.202;2022-08-19T13:28:44;49.23;;;33.97;;
5135;SDS011;2586;48.710;9.202;2022-08-19T13:31:30;47.90;;;34.60;;
5135;SDS011;2586;48.710;9.202;2022-08-19T13:34:16;38.60;;;32.00;;
5135;SDS011;2586;48.710;9.202;2022-08-19T13:36:44;44.97;;;33.10;;
5135;SDS011;2586;48.710;9.202;2022-08-19T13:39:10;41.20;;;33.40;;
5135;SDS011;2586;48.710;9.202;2022-08-19T13:41:37;42.37;;;33.90;;
5135;SDS011;2586;48.710;9.202;2022-08-19T13:44:12;48.80;;;34.40;;
5135;SDS011;2586;48.710;9.202;2022-08-19T13:46:38;39.50;;;31.70;;
5135;SDS011;2586;48.710;9.202;2022-08-19T13:49:04;39.43;;;31.73;;
5135;SDS011;2586;48.710;9.202;2022-08-19T13:51:30;42.77;;;31.87;;
5135;SDS011;2586;48.710;9.202;2022-08-19T13:53:55;46.00;;;32.50;;
5135;SDS011;2586;48.710;9.202;2022-08-19T13:56:21;41.80;;;32.00;;
5135;SDS011;2586;48.710;9.202;2022-08-19T13:58:47;39.97;;;33.57;;
5135;SDS011;2586;48.710;9.202;2022-08-19T14:01:12;46.63;;;33.50;;
5135;SDS011;2586;48.710;9.202;2022-08-19T14:03:44;43.70;;;33.90;;
5135;SDS011;2586;48.710;9.202;2022-08-19T14:06:10;46.27;;;35.17;;
5135;SDS011;2586;48.710;9.202;2022-08-19T14:08:35;52.03;;;35.07;;
5135;SDS011;2586;48.710;9.202;2022-08-19T14:11:04;46.13;;;32.47;;
5135;SDS011;2586;48.710;9.202;2022-08-19T14:13:30;37.27;;;29.57;;
5135;SDS011;2586;48.710;9.202;2022-08-19T14:15:57;43.03;;;33.70;;
5135;SDS011;2586;48.710;9.202;2022-08-19T14:18:23;41.63;;;31.60;;
5135;SDS011;2586;48.710;9.202;2022-08-19T14:20:49;40.93;;;33.47;;
5135;SDS011;2586;48.710;9.202;2022-08-19T14:23:15;40.07;;;32.30;;
5135;SDS011;2586;48.710;9.202;2022-08-19T14:25:41;39.70;;;29.83;;
5135;SDS011;2586;48.710;9.202;2022-08-19T14:28:08;36.90;;;30.90;;
5135;SDS011;2586;48.710;9.202;2022-08-19T14:30:34;34.57;;;30.07;;
5135;SDS011;2586;48.710;9.202;2022-08-19T14:33:02;37.73;;;30.43;;
5135;SDS011;2586;48.710;9.202;2022-08-19T14:35:30;34.43;;;30.10;;
5135;SDS011;2586;48.710;9.202;2022-08-19T14:37:59;39.87;;;29.37;;
5135;SDS011;2586;48.710;9.202;2022-08-19T14:40:26;38.97;;;28.97;;
5135;SDS011;2586;48.710;9.202;2022-08-19T14:42:58;33.73;;;25.97;;
5135;SDS011;2586;48.710;9.202;2022-08-19T14:45:29;32.20;;;26.10;;
5135;SDS011;2586;48.710;9.202;2022-08-19T14:48:01;34.53;;;26.70;;
5135;SDS011;2586;48.710;9.202;2022-08-19T14:50:27;29.33;;;23.90;;
5135;SDS011;2586;48.710;9.202;2022-08-19T14:53:00;31.97;;;24.87;;
5135;SDS011;2586;48.710;9.202;2022-08-19T14:55:28;31.23;;;25.87;;
5135;SDS011;2586;48.710;9.202;2022-08-19T14:57:55;37.70;;;28.40;;